sensor_id;sensor_type;location;lat;lon;timestamp;P1;durP1;ratioP1;P2;durP2;ratioP2
21305;SDS011;10812;51.838;5.838;2022-08-19T00:01:26;7.10;;;6.43;;
21305;SDS011;10812;51.838;5.838;2022-08-19T00:03:56;7.95;;;7.07;;
21305;SDS011;10812;51.838;5.838;2022-08-19T00:06:24;11.65;;;6.93;;
21305;SDS011;10812;51.838;5.838;2022-08-19T00:08:53;9.07;;;6.95;;
21305;SDS011;10812;51.838;5.838;2022-08-19T00:11:21;6.93;;;6.22;;
21305;SDS011;10812;51.838;5.838;2022-08-19T00:13:51;6.65;;;6.05;;
21305;SDS011;10812;51.838;5.838;2022-08-19T00:16:22;8.10;;;6.85;;
21305;SDS011;10812;51.838;5.838;2022-08-19T00:18:53;7.60;;;6.78;;
21305;SDS011;10812;51.838;5.838;2022-08-19T00:21:22;8.68;;;7.25;;
21305;SDS011;10812;51.838;5.838;2022-08-19T00:23:50;7.55;;;6.85;;
21305;SDS011;10812;51.838;5.838;2022-08-19T00:26:18;11.77;;;7.30;;
21305;SDS011;10812;51.838;5.838;2022-08-19T00:28:47;9.20;;;7.18;;
21305;SDS011;10812;51.838;5.838;2022-08-19T00:31:15;7.50;;;6.80;;
21305;SDS011;10812;51.838;5.838;2022-08-19T00:33:43;7.35;;;6.65;;
21305;SDS011;10812;51.838;5.838;2022-08-19T00:36:13;7.63;;;6.90;;
21305;SDS011;10812;51.838;5.838;2022-08-19T00:38:41;9.38;;;7.60;;
21305;SDS011;10812;51.838;5.838;2022-08-19T00:41:11;8.00;;;7.20;;
21305;SDS011;10812;51.838;5.838;2022-08-19T00:43:40;8.85;;;7.15;;
21305;SDS011;10812;51.838;5.838;2022-08-19T00:46:10;8.35;;;7.53;;
21305;SDS011;10812;51.838;5.838;2022-08-19T00:48:39;9.57;;;7.70;;
21305;SDS011;10812;51.838;5.838;2022-08-19T00:51:07;8.35;;;7.50;;
21305;SDS011;10812;51.838;5.838;2022-08-19T00:53:37;8.48;;;7.45;;
21305;SDS011;10812;51.838;5.838;2022-08-19T00:56:05;9.18;;;7.82;;
21305;SDS011;10812;51.838;5.838;2022-08-19T00:58:36;8.82;;;7.90;;
21305;SDS011;10812;51.838;5.838;2022-08-19T01:01:04;8.77;;;7.90;;
21305;SDS011;10812;51.838;5.838;2022-08-19T01:03:34;9.77;;;8.02;;
21305;SDS011;10812;51.838;5.838;2022-08-19T01:06:22;8.88;;;7.47;;
21305;SDS011;10812;51.838;5.838;2022-08-19T01:08:51;8.43;;;7.53;;
21305;SDS011;10812;51.838;5.838;2022-08-19T01:11:19;8.55;;;7.68;;
21305;SDS011;10812;51.838;5.838;2022-08-19T01:13:48;8.48;;;7.60;;
21305;SDS011;10812;51.838;5.838;2022-08-19T01:16:17;8.25;;;7.40;;
21305;SDS011;10812;51.838;5.838;2022-08-19T01:18:47;7.93;;;7.13;;
21305;SDS011;10812;51.838;5.838;2022-08-19T01:21:17;9.82;;;7.63;;
21305;SDS011;10812;51.838;5.838;2022-08-19T01:23:50;9.05;;;7.70;;
21305;SDS011;10812;51.838;5.838;2022-08-19T01:26:19;7.80;;;7.00;;
21305;SDS011;10812;51.838;5.838;2022-08-19T01:28:50;8.50;;;7.10;;
21305;SDS011;10812;51.838;5.838;2022-08-19T01:31:27;7.65;;;6.95;;
21305;SDS011;10812;51.838;5.838;2022-08-19T01:33:58;7.97;;;7.18;;
21305;SDS011;10812;51.838;5.838;2022-08-19T01:36:29;9.05;;;7.50;;
21305;SDS011;10812;51.838;5.838;2022-08-19T01:39:01;8.20;;;7.40;;
21305;SDS011;10812;51.838;5.838;2022-08-19T01:41:34;8.98;;;8.07;;
21305;SDS011;10812;51.838;5.838;2022-08-19T01:44:02;8.57;;;6.82;;
21305;SDS011;10812;51.838;5.838;2022-08-19T01:46:44;9.45;;;8.07;;
21305;SDS011;10812;51.838;5.838;2022-08-19T01:49:13;10.55;;;7.93;;
21305;SDS011;10812;51.838;5.838;2022-08-19T01:51:42;10.13;;;8.05;;
21305;SDS011;10812;51.838;5.838;2022-08-19T01:54:12;8.30;;;7.50;;
21305;SDS011;10812;51.838;5.838;2022-08-19T01:56:54;8.55;;;7.75;;
21305;SDS011;10812;51.838;5.838;2022-08-19T01:59:26;9.30;;;8.05;;
21305;SDS011;10812;51.838;5.838;2022-08-19T02:01:55;9.07;;;8.18;;
21305;SDS011;10812;51.838;5.838;2022-08-19T02:04:23;8.60;;;7.57;;
21305;SDS011;10812;51.838;5.838;2022-08-19T02:06:53;8.68;;;7.82;;
21305;SDS011;10812;51.838;5.838;2022-08-19T02:09:22;8.80;;;7.88;;
21305;SDS011;10812;51.838;5.838;2022-08-19T02:11:50;9.63;;;8.57;;
21305;SDS011;10812;51.838;5.838;2022-08-19T02:14:19;9.05;;;8.10;;
21305;SDS011;10812;51.838;5.838;2022-08-19T02:16:47;11.27;;;8.93;;
21305;SDS011;10812;51.838;5.838;2022-08-19T02:19:15;9.50;;;8.52;;
21305;SDS011;10812;51.838;5.838;2022-08-19T02:21:44;10.07;;;9.07;;
21305;SDS011;10812;51.838;5.838;2022-08-19T02:24:12;10.20;;;9.13;;
21305;SDS011;10812;51.838;5.838;2022-08-19T02:26:41;9.77;;;8.77;;
21305;SDS011;10812;51.838;5.838;2022-08-19T02:29:09;10.32;;;9.32;;
21305;SDS011;10812;51.838;5.838;2022-08-19T02:31:37;10.63;;;9.52;;
21305;SDS011;10812;51.838;5.838;2022-08-19T02:34:05;10.25;;;8.25;;
21305;SDS011;10812;51.838;5.838;2022-08-19T02:36:34;9.93;;;8.48;;
21305;SDS011;10812;51.838;5.838;2022-08-19T02:39:07;10.77;;;8.80;;
21305;SDS011;10812;51.838;5.838;2022-08-19T02:41:35;8.98;;;8.07;;
21305;SDS011;10812;51.838;5.838;2022-08-19T02:44:04;9.80;;;8.80;;
21305;SDS011;10812;51.838;5.838;2022-08-19T02:46:52;11.32;;;9.25;;
21305;SDS011;10812;51.838;5.838;2022-08-19T02:49:21;9.80;;;8.80;;
21305;SDS011;10812;51.838;5.838;2022-08-19T02:51:49;10.48;;;9.02;;
21305;SDS011;10812;51.838;5.838;2022-08-19T02:54:18;11.70;;;9.30;;
21305;SDS011;10812;51.838;5.838;2022-08-19T02:56:46;10.35;;;8.75;;
21305;SDS011;10812;51.838;5.838;2022-08-19T02:59:15;11.80;;;9.00;;
21305;SDS011;10812;51.838;5.838;2022-08-19T03:07:18;11.02;;;9.93;;
21305;SDS011;10812;51.838;5.838;2022-08-19T03:09:46;10.88;;;9.75;;
21305;SDS011;10812;51.838;5.838;2022-08-19T03:12:14;12.60;;;9.68;;
21305;SDS011;10812;51.838;5.838;2022-08-19T03:14:44;11.90;;;9.75;;
21305;SDS011;10812;51.838;5.838;2022-08-19T03:17:12;10.55;;;9.40;;
21305;SDS011;10812;51.838;5.838;2022-08-19T03:19:41;12.57;;;10.52;;
21305;SDS011;10812;51.838;5.838;2022-08-19T03:22:09;11.80;;;10.00;;
21305;SDS011;10812;51.838;5.838;2022-08-19T03:24:37;10.38;;;9.15;;
21305;SDS011;10812;51.838;5.838;2022-08-19T03:27:06;11.52;;;9.27;;
21305;SDS011;10812;51.838;5.838;2022-08-19T03:29:34;10.25;;;9.25;;
21305;SDS011;10812;51.838;5.838;2022-08-19T03:32:10;10.18;;;9.27;;
21305;SDS011;10812;51.838;5.838;2022-08-19T03:34:57;10.98;;;9.30;;
21305;SDS011;10812;51.838;5.838;2022-08-19T03:37:25;12.40;;;9.80;;
21305;SDS011;10812;51.838;5.838;2022-08-19T03:39:54;11.38;;;9.55;;
21305;SDS011;10812;51.838;5.838;2022-08-19T03:42:22;11.23;;;9.52;;
21305;SDS011;10812;51.838;5.838;2022-08-19T03:45:03;12.73;;;10.50;;
21305;SDS011;10812;51.838;5.838;2022-08-19T03:47:34;12.85;;;11.43;;
21305;SDS011;10812;51.838;5.838;2022-08-19T03:50:03;13.63;;;11.52;;
21305;SDS011;10812;51.838;5.838;2022-08-19T03:52:32;14.40;;;12.85;;
21305;SDS011;10812;51.838;5.838;2022-08-19T03:55:00;14.32;;;12.73;;
21305;SDS011;10812;51.838;5.838;2022-08-19T03:57:28;18.75;;;14.40;;
21305;SDS011;10812;51.838;5.838;2022-08-19T03:59:57;18.42;;;14.23;;
21305;SDS011;10812;51.838;5.838;2022-08-19T04:02:39;19.48;;;15.98;;
21305;SDS011;10812;51.838;5.838;2022-08-19T04:05:25;18.88;;;16.02;;
21305;SDS011;10812;51.838;5.838;2022-08-19T04:07:54;23.00;;;17.38;;
21305;SDS011;10812;51.838;5.838;2022-08-19T04:10:25;23.15;;;18.25;;
21305;SDS011;10812;51.838;5.838;2022-08-19T04:12:53;22.08;;;18.15;;
21305;SDS011;10812;51.838;5.838;2022-08-19T04:15:22;22.65;;;17.42;;
21305;SDS011;10812;51.838;5.838;2022-08-19T04:17:51;20.23;;;16.85;;
21305;SDS011;10812;51.838;5.838;2022-08-19T04:20:19;19.65;;;16.88;;
21305;SDS011;10812;51.838;5.838;2022-08-19T04:22:47;23.10;;;18.35;;
21305;SDS011;10812;51.838;5.838;2022-08-19T04:25:15;22.15;;;16.67;;
21305;SDS011;10812;51.838;5.838;2022-08-19T04:27:43;23.00;;;18.40;;
21305;SDS011;10812;51.838;5.838;2022-08-19T04:30:13;22.00;;;18.02;;
21305;SDS011;10812;51.838;5.838;2022-08-19T04:32:41;21.58;;;17.83;;
21305;SDS011;10812;51.838;5.838;2022-08-19T04:35:11;19.67;;;16.70;;
21305;SDS011;10812;51.838;5.838;2022-08-19T04:37:43;22.27;;;17.35;;
21305;SDS011;10812;51.838;5.838;2022-08-19T04:40:12;24.13;;;17.02;;
21305;SDS011;10812;51.838;5.838;2022-08-19T04:42:57;22.80;;;18.35;;
21305;SDS011;10812;51.838;5.838;2022-08-19T04:45:25;24.73;;;18.63;;
21305;SDS011;10812;51.838;5.838;2022-08-19T04:48:04;25.80;;;18.77;;
21305;SDS011;10812;51.838;5.838;2022-08-19T04:50:54;24.45;;;19.77;;
21305;SDS011;10812;51.838;5.838;2022-08-19T04:53:24;25.63;;;19.65;;
21305;SDS011;10812;51.838;5.838;2022-08-19T04:55:54;25.73;;;19.75;;
21305;SDS011;10812;51.838;5.838;2022-08-19T04:58:24;27.15;;;20.13;;
21305;SDS011;10812;51.838;5.838;2022-08-19T05:00:56;25.70;;;20.33;;
21305;SDS011;10812;51.838;5.838;2022-08-19T05:03:26;25.10;;;20.33;;
21305;SDS011;10812;51.838;5.838;2022-08-19T05:06:04;25.20;;;19.25;;
21305;SDS011;10812;51.838;5.838;2022-08-19T05:08:34;24.38;;;19.85;;
21305;SDS011;10812;51.838;5.838;2022-08-19T05:11:07;26.27;;;19.92;;
21305;SDS011;10812;51.838;5.838;2022-08-19T05:13:39;23.25;;;18.40;;
21305;SDS011;10812;51.838;5.838;2022-08-19T05:16:08;23.83;;;18.73;;
21305;SDS011;10812;51.838;5.838;2022-08-19T05:18:38;23.63;;;19.70;;
21305;SDS011;10812;51.838;5.838;2022-08-19T05:21:25;24.58;;;20.33;;
21305;SDS011;10812;51.838;5.838;2022-08-19T05:24:12;25.38;;;19.67;;
21305;SDS011;10812;51.838;5.838;2022-08-19T05:26:41;26.10;;;21.13;;
21305;SDS011;10812;51.838;5.838;2022-08-19T05:29:12;27.90;;;21.90;;
21305;SDS011;10812;51.838;5.838;2022-08-19T05:31:41;27.35;;;21.45;;
21305;SDS011;10812;51.838;5.838;2022-08-19T05:34:10;29.95;;;21.58;;
21305;SDS011;10812;51.838;5.838;2022-08-19T05:36:47;25.50;;;19.83;;
21305;SDS011;10812;51.838;5.838;2022-08-19T05:39:23;33.33;;;23.65;;
21305;SDS011;10812;51.838;5.838;2022-08-19T05:41:54;28.02;;;23.15;;
21305;SDS011;10812;51.838;5.838;2022-08-19T05:44:24;32.78;;;23.27;;
21305;SDS011;10812;51.838;5.838;2022-08-19T05:46:53;32.00;;;24.63;;
21305;SDS011;10812;51.838;5.838;2022-08-19T05:49:22;30.08;;;22.45;;
21305;SDS011;10812;51.838;5.838;2022-08-19T05:51:53;26.23;;;21.17;;
21305;SDS011;10812;51.838;5.838;2022-08-19T05:54:23;28.75;;;21.63;;
21305;SDS011;10812;51.838;5.838;2022-08-19T05:56:52;26.92;;;21.63;;
21305;SDS011;10812;51.838;5.838;2022-08-19T05:59:21;25.25;;;20.17;;
21305;SDS011;10812;51.838;5.838;2022-08-19T06:01:52;29.85;;;23.10;;
21305;SDS011;10812;51.838;5.838;2022-08-19T06:04:22;29.63;;;21.52;;
21305;SDS011;10812;51.838;5.838;2022-08-19T06:06:53;30.70;;;21.70;;
21305;SDS011;10812;51.838;5.838;2022-08-19T06:09:22;32.05;;;23.63;;
21305;SDS011;10812;51.838;5.838;2022-08-19T06:11:51;28.85;;;22.70;;
21305;SDS011;10812;51.838;5.838;2022-08-19T06:14:22;29.38;;;22.38;;
21305;SDS011;10812;51.838;5.838;2022-08-19T06:16:53;29.50;;;22.27;;
21305;SDS011;10812;51.838;5.838;2022-08-19T06:19:21;25.92;;;21.38;;
21305;SDS011;10812;51.838;5.838;2022-08-19T06:21:52;27.80;;;20.98;;
21305;SDS011;10812;51.838;5.838;2022-08-19T06:24:22;27.27;;;22.08;;
21305;SDS011;10812;51.838;5.838;2022-08-19T06:26:53;31.65;;;22.38;;
21305;SDS011;10812;51.838;5.838;2022-08-19T06:29:27;28.88;;;22.67;;
21305;SDS011;10812;51.838;5.838;2022-08-19T06:31:59;33.47;;;24.90;;
21305;SDS011;10812;51.838;5.838;2022-08-19T06:34:29;33.47;;;23.40;;
21305;SDS011;10812;51.838;5.838;2022-08-19T06:37:01;33.33;;;25.13;;
21305;SDS011;10812;51.838;5.838;2022-08-19T06:39:30;36.72;;;26.02;;
21305;SDS011;10812;51.838;5.838;2022-08-19T06:42:02;37.45;;;26.52;;
21305;SDS011;10812;51.838;5.838;2022-08-19T06:44:36;39.33;;;26.20;;
21305;SDS011;10812;51.838;5.838;2022-08-19T06:47:09;38.85;;;27.20;;
21305;SDS011;10812;51.838;5.838;2022-08-19T06:49:52;36.53;;;26.90;;
21305;SDS011;10812;51.838;5.838;2022-08-19T06:52:30;39.72;;;25.45;;
21305;SDS011;10812;51.838;5.838;2022-08-19T06:55:02;34.22;;;25.08;;
21305;SDS011;10812;51.838;5.838;2022-08-19T06:57:31;33.00;;;23.67;;
21305;SDS011;10812;51.838;5.838;2022-08-19T07:00:00;31.50;;;24.15;;
21305;SDS011;10812;51.838;5.838;2022-08-19T07:02:29;34.97;;;24.90;;
21305;SDS011;10812;51.838;5.838;2022-08-19T07:04:57;31.85;;;24.83;;
21305;SDS011;10812;51.838;5.838;2022-08-19T07:07:33;36.85;;;26.35;;
21305;SDS011;10812;51.838;5.838;2022-08-19T07:10:02;32.70;;;25.13;;
21305;SDS011;10812;51.838;5.838;2022-08-19T07:12:33;31.90;;;24.92;;
21305;SDS011;10812;51.838;5.838;2022-08-19T07:15:03;33.47;;;23.85;;
21305;SDS011;10812;51.838;5.838;2022-08-19T07:17:34;31.42;;;23.65;;
21305;SDS011;10812;51.838;5.838;2022-08-19T07:20:05;26.75;;;23.23;;
21305;SDS011;10812;51.838;5.838;2022-08-19T07:22:37;32.67;;;24.33;;
21305;SDS011;10812;51.838;5.838;2022-08-19T07:25:06;29.17;;;23.48;;
21305;SDS011;10812;51.838;5.838;2022-08-19T07:27:36;35.35;;;25.98;;
21305;SDS011;10812;51.838;5.838;2022-08-19T07:30:05;29.60;;;25.33;;
21305;SDS011;10812;51.838;5.838;2022-08-19T07:32:37;30.83;;;26.35;;
21305;SDS011;10812;51.838;5.838;2022-08-19T07:35:08;31.60;;;23.73;;
21305;SDS011;10812;51.838;5.838;2022-08-19T07:37:38;32.38;;;25.52;;
21305;SDS011;10812;51.838;5.838;2022-08-19T07:40:10;32.08;;;25.20;;
21305;SDS011;10812;51.838;5.838;2022-08-19T07:58:04;30.77;;;24.83;;
21305;SDS011;10812;51.838;5.838;2022-08-19T08:00:32;28.73;;;24.05;;
21305;SDS011;10812;51.838;5.838;2022-08-19T08:03:02;25.95;;;23.15;;
21305;SDS011;10812;51.838;5.838;2022-08-19T08:05:30;25.48;;;22.80;;
21305;SDS011;10812;51.838;5.838;2022-08-19T08:08:15;25.60;;;22.90;;
21305;SDS011;10812;51.838;5.838;2022-08-19T08:11:13;26.58;;;23.80;;
21305;SDS011;10812;51.838;5.838;2022-08-19T08:17:23;23.75;;;21.23;;
21305;SDS011;10812;51.838;5.838;2022-08-19T08:20:13;27.90;;;23.92;;
21305;SDS011;10812;51.838;5.838;2022-08-19T08:22:42;26.55;;;23.25;;
21305;SDS011;10812;51.838;5.838;2022-08-19T08:25:29;26.73;;;22.08;;
21305;SDS011;10812;51.838;5.838;2022-08-19T08:28:00;25.63;;;22.92;;
21305;SDS011;10812;51.838;5.838;2022-08-19T08:30:30;25.60;;;21.70;;
21305;SDS011;10812;51.838;5.838;2022-08-19T08:33:03;22.92;;;19.42;;
21305;SDS011;10812;51.838;5.838;2022-08-19T08:35:32;24.70;;;20.48;;
21305;SDS011;10812;51.838;5.838;2022-08-19T08:38:00;22.67;;;19.63;;
21305;SDS011;10812;51.838;5.838;2022-08-19T08:40:30;20.33;;;18.10;;
21305;SDS011;10812;51.838;5.838;2022-08-19T08:43:06;19.80;;;17.80;;
21305;SDS011;10812;51.838;5.838;2022-08-19T08:45:38;17.85;;;15.98;;
21305;SDS011;10812;51.838;5.838;2022-08-19T08:51:11;20.35;;;16.55;;
21305;SDS011;10812;51.838;5.838;2022-08-19T08:53:46;18.17;;;15.68;;
21305;SDS011;10812;51.838;5.838;2022-08-19T08:56:22;15.68;;;14.07;;
21305;SDS011;10812;51.838;5.838;2022-08-19T08:58:51;16.27;;;14.65;;
21305;SDS011;10812;51.838;5.838;2022-08-19T09:01:24;17.20;;;15.38;;
21305;SDS011;10812;51.838;5.838;2022-08-19T09:03:57;17.40;;;14.93;;
21305;SDS011;10812;51.838;5.838;2022-08-19T09:06:31;16.23;;;14.23;;
21305;SDS011;10812;51.838;5.838;2022-08-19T09:09:10;17.23;;;14.57;;
21305;SDS011;10812;51.838;5.838;2022-08-19T09:11:46;15.75;;;13.73;;
21305;SDS011;10812;51.838;5.838;2022-08-19T09:14:34;16.63;;;12.50;;
21305;SDS011;10812;51.838;5.838;2022-08-19T09:17:17;17.38;;;13.45;;
21305;SDS011;10812;51.838;5.838;2022-08-19T09:19:50;14.38;;;12.85;;
21305;SDS011;10812;51.838;5.838;2022-08-19T09:22:19;14.93;;;13.32;;
21305;SDS011;10812;51.838;5.838;2022-08-19T09:24:52;13.75;;;11.07;;
21305;SDS011;10812;51.838;5.838;2022-08-19T09:27:22;15.18;;;11.98;;
21305;SDS011;10812;51.838;5.838;2022-08-19T09:30:09;16.10;;;14.15;;
21305;SDS011;10812;51.838;5.838;2022-08-19T09:32:41;15.48;;;11.77;;
21305;SDS011;10812;51.838;5.838;2022-08-19T09:35:11;22.98;;;18.90;;
21305;SDS011;10812;51.838;5.838;2022-08-19T09:37:41;24.20;;;18.88;;
21305;SDS011;10812;51.838;5.838;2022-08-19T09:40:10;23.67;;;18.67;;
21305;SDS011;10812;51.838;5.838;2022-08-19T09:42:40;25.58;;;19.83;;
21305;SDS011;10812;51.838;5.838;2022-08-19T09:45:16;23.75;;;18.20;;
21305;SDS011;10812;51.838;5.838;2022-08-19T09:47:48;23.30;;;18.95;;
21305;SDS011;10812;51.838;5.838;2022-08-19T09:50:21;22.90;;;16.13;;
21305;SDS011;10812;51.838;5.838;2022-08-19T09:52:50;25.73;;;17.30;;
21305;SDS011;10812;51.838;5.838;2022-08-19T09:55:24;20.45;;;16.15;;
21305;SDS011;10812;51.838;5.838;2022-08-19T09:57:58;23.42;;;16.85;;
21305;SDS011;10812;51.838;5.838;2022-08-19T10:00:27;21.85;;;16.88;;
21305;SDS011;10812;51.838;5.838;2022-08-19T10:02:56;19.88;;;15.45;;
21305;SDS011;10812;51.838;5.838;2022-08-19T10:05:27;21.60;;;14.93;;
21305;SDS011;10812;51.838;5.838;2022-08-19T10:08:14;17.85;;;15.05;;
21305;SDS011;10812;51.838;5.838;2022-08-19T10:10:43;16.75;;;14.40;;
21305;SDS011;10812;51.838;5.838;2022-08-19T10:13:12;17.80;;;13.55;;
21305;SDS011;10812;51.838;5.838;2022-08-19T10:15:42;19.20;;;14.88;;
21305;SDS011;10812;51.838;5.838;2022-08-19T10:18:14;17.27;;;13.55;;
21305;SDS011;10812;51.838;5.838;2022-08-19T10:20:46;15.23;;;13.10;;
21305;SDS011;10812;51.838;5.838;2022-08-19T10:23:18;18.05;;;13.18;;
21305;SDS011;10812;51.838;5.838;2022-08-19T10:25:47;17.55;;;14.27;;
21305;SDS011;10812;51.838;5.838;2022-08-19T10:28:17;17.60;;;15.30;;
21305;SDS011;10812;51.838;5.838;2022-08-19T10:30:45;20.55;;;13.02;;
21305;SDS011;10812;51.838;5.838;2022-08-19T10:33:14;16.95;;;14.02;;
21305;SDS011;10812;51.838;5.838;2022-08-19T10:36:05;18.92;;;15.40;;
21305;SDS011;10812;51.838;5.838;2022-08-19T10:38:37;17.20;;;13.60;;
21305;SDS011;10812;51.838;5.838;2022-08-19T10:41:19;21.17;;;14.18;;
21305;SDS011;10812;51.838;5.838;2022-08-19T10:43:50;17.40;;;14.23;;
21305;SDS011;10812;51.838;5.838;2022-08-19T10:46:21;18.02;;;13.55;;
21305;SDS011;10812;51.838;5.838;2022-08-19T10:48:50;17.65;;;12.60;;
21305;SDS011;10812;51.838;5.838;2022-08-19T10:51:20;15.00;;;12.07;;
21305;SDS011;10812;51.838;5.838;2022-08-19T10:54:17;14.38;;;11.70;;
21305;SDS011;10812;51.838;5.838;2022-08-19T10:56:57;16.75;;;11.55;;
21305;SDS011;10812;51.838;5.838;2022-08-19T10:59:25;15.48;;;12.55;;
21305;SDS011;10812;51.838;5.838;2022-08-19T11:02:01;18.83;;;13.63;;
21305;SDS011;10812;51.838;5.838;2022-08-19T11:04:32;16.38;;;13.23;;
21305;SDS011;10812;51.838;5.838;2022-08-19T11:07:03;18.15;;;12.50;;
21305;SDS011;10812;51.838;5.838;2022-08-19T11:09:35;18.48;;;13.00;;
21305;SDS011;10812;51.838;5.838;2022-08-19T11:12:06;14.82;;;12.40;;
21305;SDS011;10812;51.838;5.838;2022-08-19T11:14:35;16.83;;;13.18;;
21305;SDS011;10812;51.838;5.838;2022-08-19T11:17:04;18.00;;;13.07;;
21305;SDS011;10812;51.838;5.838;2022-08-19T11:19:33;16.95;;;13.13;;
21305;SDS011;10812;51.838;5.838;2022-08-19T11:22:03;14.88;;;12.95;;
21305;SDS011;10812;51.838;5.838;2022-08-19T11:24:34;20.15;;;14.82;;
21305;SDS011;10812;51.838;5.838;2022-08-19T11:27:04;16.92;;;13.02;;
21305;SDS011;10812;51.838;5.838;2022-08-19T11:29:35;18.88;;;15.25;;
21305;SDS011;10812;51.838;5.838;2022-08-19T11:32:05;18.08;;;13.10;;
21305;SDS011;10812;51.838;5.838;2022-08-19T11:34:37;16.45;;;13.75;;
21305;SDS011;10812;51.838;5.838;2022-08-19T11:37:06;15.70;;;12.80;;
21305;SDS011;10812;51.838;5.838;2022-08-19T11:39:35;16.00;;;12.30;;
21305;SDS011;10812;51.838;5.838;2022-08-19T11:42:05;18.30;;;14.15;;
21305;SDS011;10812;51.838;5.838;2022-08-19T11:44:54;16.33;;;13.63;;
21305;SDS011;10812;51.838;5.838;2022-08-19T11:47:22;15.93;;;14.15;;
21305;SDS011;10812;51.838;5.838;2022-08-19T11:49:50;19.33;;;14.45;;
21305;SDS011;10812;51.838;5.838;2022-08-19T11:52:21;17.25;;;13.90;;
21305;SDS011;10812;51.838;5.838;2022-08-19T11:54:49;17.38;;;15.30;;
21305;SDS011;10812;51.838;5.838;2022-08-19T11:57:17;18.25;;;16.27;;
21305;SDS011;10812;51.838;5.838;2022-08-19T11:59:49;19.38;;;16.08;;
21305;SDS011;10812;51.838;5.838;2022-08-19T12:02:17;21.80;;;17.50;;
21305;SDS011;10812;51.838;5.838;2022-08-19T12:04:46;16.25;;;14.38;;
21305;SDS011;10812;51.838;5.838;2022-08-19T12:07:14;20.05;;;15.38;;
21305;SDS011;10812;51.838;5.838;2022-08-19T12:09:45;19.45;;;15.13;;
21305;SDS011;10812;51.838;5.838;2022-08-19T12:12:14;18.13;;;15.63;;
21305;SDS011;10812;51.838;5.838;2022-08-19T12:14:42;22.58;;;18.05;;
21305;SDS011;10812;51.838;5.838;2022-08-19T12:17:11;20.23;;;16.38;;
21305;SDS011;10812;51.838;5.838;2022-08-19T12:19:39;22.40;;;16.52;;
21305;SDS011;10812;51.838;5.838;2022-08-19T12:22:07;25.80;;;18.65;;
21305;SDS011;10812;51.838;5.838;2022-08-19T12:24:35;22.40;;;18.48;;
21305;SDS011;10812;51.838;5.838;2022-08-19T12:27:05;22.15;;;18.42;;
21305;SDS011;10812;51.838;5.838;2022-08-19T12:29:38;21.48;;;17.77;;
21305;SDS011;10812;51.838;5.838;2022-08-19T12:32:07;20.38;;;17.27;;
21305;SDS011;10812;51.838;5.838;2022-08-19T12:34:37;20.55;;;17.88;;
21305;SDS011;10812;51.838;5.838;2022-08-19T12:37:06;20.33;;;17.90;;
21305;SDS011;10812;51.838;5.838;2022-08-19T12:39:35;19.60;;;17.50;;
21305;SDS011;10812;51.838;5.838;2022-08-19T12:42:07;22.25;;;17.73;;
21305;SDS011;10812;51.838;5.838;2022-08-19T12:44:35;21.70;;;17.92;;
21305;SDS011;10812;51.838;5.838;2022-08-19T12:47:07;21.17;;;18.20;;
21305;SDS011;10812;51.838;5.838;2022-08-19T12:49:37;24.70;;;18.88;;
21305;SDS011;10812;51.838;5.838;2022-08-19T12:52:20;21.48;;;18.17;;
21305;SDS011;10812;51.838;5.838;2022-08-19T12:54:50;21.50;;;18.60;;
21305;SDS011;10812;51.838;5.838;2022-08-19T12:57:21;26.20;;;19.15;;
21305;SDS011;10812;51.838;5.838;2022-08-19T12:59:58;20.83;;;17.77;;
21305;SDS011;10812;51.838;5.838;2022-08-19T13:02:30;21.70;;;16.42;;
21305;SDS011;10812;51.838;5.838;2022-08-19T13:05:05;20.52;;;16.27;;
21305;SDS011;10812;51.838;5.838;2022-08-19T13:07:36;25.17;;;18.98;;
21305;SDS011;10812;51.838;5.838;2022-08-19T13:10:05;22.25;;;17.27;;
21305;SDS011;10812;51.838;5.838;2022-08-19T13:12:35;17.73;;;15.77;;
21305;SDS011;10812;51.838;5.838;2022-08-19T13:15:04;17.13;;;14.80;;
21305;SDS011;10812;51.838;5.838;2022-08-19T13:17:36;23.55;;;16.08;;
21305;SDS011;10812;51.838;5.838;2022-08-19T13:20:07;19.50;;;16.88;;
21305;SDS011;10812;51.838;5.838;2022-08-19T13:22:36;20.92;;;18.00;;
21305;SDS011;10812;51.838;5.838;2022-08-19T13:25:05;20.05;;;16.63;;
21305;SDS011;10812;51.838;5.838;2022-08-19T13:27:36;23.25;;;16.67;;
21305;SDS011;10812;51.838;5.838;2022-08-19T13:30:06;20.45;;;16.38;;
21305;SDS011;10812;51.838;5.838;2022-08-19T13:33:05;15.48;;;13.88;;
21305;SDS011;10812;51.838;5.838;2022-08-19T13:35:43;20.27;;;15.57;;
21305;SDS011;10812;51.838;5.838;2022-08-19T13:38:15;24.10;;;15.75;;
21305;SDS011;10812;51.838;5.838;2022-08-19T13:40:46;20.38;;;15.70;;
21305;SDS011;10812;51.838;5.838;2022-08-19T13:43:17;20.35;;;15.98;;
21305;SDS011;10812;51.838;5.838;2022-08-19T13:45:49;20.27;;;17.05;;
21305;SDS011;10812;51.838;5.838;2022-08-19T13:48:20;21.67;;;17.05;;
21305;SDS011;10812;51.838;5.838;2022-08-19T13:50:48;20.70;;;17.30;;
21305;SDS011;10812;51.838;5.838;2022-08-19T13:53:16;22.70;;;18.75;;
21305;SDS011;10812;51.838;5.838;2022-08-19T13:55:45;20.58;;;15.63;;
21305;SDS011;10812;51.838;5.838;2022-08-19T13:58:13;17.33;;;14.10;;
21305;SDS011;10812;51.838;5.838;2022-08-19T14:07:38;19.50;;;15.18;;
21305;SDS011;10812;51.838;5.838;2022-08-19T14:10:07;16.95;;;15.15;;
21305;SDS011;10812;51.838;5.838;2022-08-19T14:12:37;19.65;;;15.18;;
21305;SDS011;10812;51.838;5.838;2022-08-19T14:15:06;21.80;;;16.33;;
21305;SDS011;10812;51.838;5.838;2022-08-19T14:17:37;18.02;;;14.15;;
21305;SDS011;10812;51.838;5.838;2022-08-19T14:20:07;15.63;;;13.88;;
21305;SDS011;10812;51.838;5.838;2022-08-19T14:22:44;18.95;;;15.77;;
21305;SDS011;10812;51.838;5.838;2022-08-19T14:25:15;21.77;;;15.88;;
21305;SDS011;10812;51.838;5.838;2022-08-19T14:27:45;21.08;;;16.80;;
21305;SDS011;10812;51.838;5.838;2022-08-19T14:30:16;19.05;;;15.82;;
21305;SDS011;10812;51.838;5.838;2022-08-19T14:32:45;20.13;;;14.85;;
21305;SDS011;10812;51.838;5.838;2022-08-19T14:35:15;20.85;;;14.70;;
21305;SDS011;10812;51.838;5.838;2022-08-19T14:37:44;16.02;;;13.38;;
21305;SDS011;10812;51.838;5.838;2022-08-19T14:40:13;14.27;;;12.75;;
21305;SDS011;10812;51.838;5.838;2022-08-19T14:42:43;17.13;;;12.95;;
21305;SDS011;10812;51.838;5.838;2022-08-19T14:45:13;16.38;;;12.40;;
21305;SDS011;10812;51.838;5.838;2022-08-19T14:47:41;18.92;;;13.27;;
21305;SDS011;10812;51.838;5.838;2022-08-19T14:50:11;14.32;;;10.95;;
21305;SDS011;10812;51.838;5.838;2022-08-19T14:52:45;13.43;;;10.57;;
21305;SDS011;10812;51.838;5.838;2022-08-19T14:55:15;13.98;;;10.00;;
21305;SDS011;10812;51.838;5.838;2022-08-19T14:57:44;12.57;;;9.52;;
21305;SDS011;10812;51.838;5.838;2022-08-19T15:00:13;15.60;;;12.63;;
21305;SDS011;10812;51.838;5.838;2022-08-19T15:02:42;14.50;;;11.43;;
21305;SDS011;10812;51.838;5.838;2022-08-19T15:05:11;17.40;;;14.95;;
21305;SDS011;10812;51.838;5.838;2022-08-19T15:07:39;17.30;;;14.25;;
21305;SDS011;10812;51.838;5.838;2022-08-19T15:10:10;21.52;;;15.88;;
21305;SDS011;10812;51.838;5.838;2022-08-19T15:12:40;19.38;;;14.60;;
21305;SDS011;10812;51.838;5.838;2022-08-19T15:15:09;18.27;;;13.10;;
21305;SDS011;10812;51.838;5.838;2022-08-19T15:17:39;16.67;;;13.25;;
21305;SDS011;10812;51.838;5.838;2022-08-19T15:20:12;17.42;;;13.15;;
21305;SDS011;10812;51.838;5.838;2022-08-19T15:22:42;13.40;;;11.88;;
21305;SDS011;10812;51.838;5.838;2022-08-19T15:25:13;14.73;;;10.80;;